Terminal Aerodrome Forecast
Issued by NWS Salt Lake City, UT

Home | Current Version | Previous Version | Text Only | Print | Product List | Glossary On
Versions: 1 2 3 4 5 6 7 8 9 10 11 12 13 14
000
FTUS45 KSLC 100520
TAFCDC
TAF
KCDC 100520Z 1006/1106 18007KT P6SM BKN200
     FM101700 21014G22KT P6SM BKN150
     FM110200 20010KT P6SM SCT050 BKN070=

USA.gov is the U.S. government's official web portal to all federal, state and local government web resources and services.